createdAt,value
2022-08-07T00:02:36.921Z,26.23
2022-08-07T00:05:05.834Z,26.30
2022-08-07T00:07:40.216Z,26.33
2022-08-07T00:10:26.661Z,26.36
2022-08-07T00:13:00.968Z,26.37
2022-08-07T00:15:35.993Z,26.45
2022-08-07T00:18:06.785Z,26.47
2022-08-07T00:20:39.184Z,26.43
2022-08-07T00:23:08.163Z,26.40
2022-08-07T00:25:41.411Z,26.40
2022-08-07T00:28:10.755Z,26.41
2022-08-07T00:30:39.024Z,26.38
2022-08-07T00:33:09.443Z,26.32
2022-08-07T00:35:38.526Z,26.31
2022-08-07T00:38:06.464Z,26.25
2022-08-07T00:40:36.300Z,26.23
2022-08-07T00:44:01.467Z,26.20
2022-08-07T00:46:02.013Z,26.13
2022-08-07T00:48:31.981Z,26.00
2022-08-07T00:51:01.563Z,25.99
2022-08-07T00:53:38.517Z,25.98
2022-08-07T00:56:15.986Z,25.99
2022-08-07T00:58:47.434Z,25.93
2022-08-07T01:01:20.712Z,25.88
2022-08-07T01:03:55.675Z,25.84
2022-08-07T01:06:29.308Z,25.76
2022-08-07T01:09:01.232Z,25.69
2022-08-07T01:12:08.933Z,25.68
2022-08-07T01:14:28.852Z,25.64
2022-08-07T01:16:59.409Z,25.58
2022-08-07T01:19:32.076Z,25.56
2022-08-07T01:22:03.424Z,25.48
2022-08-07T01:24:42.329Z,25.40
2022-08-07T01:27:32.108Z,25.40
2022-08-07T01:30:00.615Z,25.31
2022-08-07T01:32:29.629Z,25.26
2022-08-07T01:35:02.089Z,25.10
2022-08-07T01:37:33.806Z,25.00
2022-08-07T01:40:06.270Z,24.94
2022-08-07T01:42:57.170Z,24.90
2022-08-07T01:45:36.374Z,24.98
2022-08-07T01:48:20.198Z,24.82
2022-08-07T01:51:24.043Z,24.53
2022-08-07T01:54:11.582Z,23.91
2022-08-07T01:56:53.214Z,23.67
2022-08-07T01:59:31.131Z,23.74
2022-08-07T02:02:10.711Z,23.94
2022-08-07T02:04:56.030Z,24.16
2022-08-07T02:07:44.942Z,24.43
2022-08-07T02:10:27.299Z,24.62
2022-08-07T02:13:00.348Z,24.68
2022-08-07T02:15:39.370Z,24.58
2022-08-07T02:18:13.879Z,24.45
2022-08-07T02:20:48.537Z,24.46
2022-08-07T02:23:24.140Z,24.64
2022-08-07T02:26:31.942Z,24.77
2022-08-07T02:28:44.809Z,24.81
2022-08-07T02:31:28.121Z,24.85
2022-08-07T02:34:02.841Z,24.83
2022-08-07T02:36:43.980Z,24.90
2022-08-07T02:39:43.738Z,24.90
2022-08-07T02:42:10.066Z,24.93
2022-08-07T02:44:48.327Z,24.95
2022-08-07T02:47:23.531Z,24.96
2022-08-07T02:50:00.060Z,24.96
2022-08-07T02:52:39.335Z,24.94
2022-08-07T02:55:28.784Z,24.93
2022-08-07T02:58:07.086Z,24.90
2022-08-07T03:00:41.045Z,24.85
2022-08-07T03:03:22.911Z,24.84
2022-08-07T03:05:56.870Z,24.79
2022-08-07T03:08:29.417Z,24.75
2022-08-07T03:11:01.754Z,24.72
2022-08-07T03:13:49.700Z,24.73
2022-08-07T03:16:23.035Z,24.73
2022-08-07T03:19:02.367Z,24.73
2022-08-07T03:21:34.450Z,24.76
2022-08-07T03:24:19.966Z,24.73
2022-08-07T03:27:00.865Z,24.71
2022-08-07T03:29:52.312Z,24.69
2022-08-07T03:32:33.930Z,24.65
2022-08-07T03:35:18.069Z,24.63
2022-08-07T03:37:55.325Z,24.63
2022-08-07T03:40:36.582Z,24.64
2022-08-07T03:43:14.371Z,24.65
2022-08-07T03:45:48.720Z,24.65
2022-08-07T03:48:22.844Z,24.61
2022-08-07T03:50:57.791Z,24.60
2022-08-07T03:54:01.930Z,24.63
2022-08-07T03:56:33.451Z,24.66
2022-08-07T03:59:09.831Z,24.62
2022-08-07T04:01:46.563Z,24.63
2022-08-07T04:04:19.849Z,24.59
2022-08-07T04:06:54.051Z,24.62
2022-08-07T04:09:25.415Z,24.62
2022-08-07T04:12:24.615Z,24.62
2022-08-07T04:14:56.645Z,24.61
2022-08-07T04:18:56.976Z,24.57
2022-08-07T04:20:14.545Z,24.50
2022-08-07T04:22:53.677Z,24.41
2022-08-07T04:25:24.175Z,24.37
2022-08-07T04:28:01.178Z,24.42
2022-08-07T04:30:36.034Z,24.49
2022-08-07T04:33:25.998Z,24.57
2022-08-07T04:35:56.680Z,24.62
2022-08-07T04:38:29.574Z,24.65
2022-08-07T04:40:59.664Z,24.67
2022-08-07T04:44:11.963Z,24.70
2022-08-07T04:47:08.784Z,24.72
2022-08-07T04:50:03.830Z,24.74
2022-08-07T04:52:51.113Z,24.66
2022-08-07T04:58:16.568Z,24.58
2022-08-07T04:58:49.761Z,24.57
2022-08-07T05:01:21.119Z,24.50
2022-08-07T05:04:17.762Z,24.39
2022-08-07T05:07:20.390Z,24.30
2022-08-07T05:10:04.635Z,24.23
2022-08-07T05:12:52.892Z,24.03
2022-08-07T05:15:27.411Z,23.98
2022-08-07T05:18:09.308Z,23.98
2022-08-07T05:20:45.256Z,24.01
2022-08-07T05:23:19.821Z,24.00
2022-08-07T05:26:15.579Z,23.97
2022-08-07T05:28:53.409Z,23.89
2022-08-07T05:31:34.545Z,23.79
2022-08-07T05:34:10.989Z,23.86
2022-08-07T05:36:44.501Z,23.88
2022-08-07T05:40:07.040Z,23.89
2022-08-07T05:42:33.700Z,23.83
2022-08-07T05:45:25.940Z,23.82
2022-08-07T05:48:01.762Z,23.82
2022-08-07T05:50:39.542Z,23.82
2022-08-07T05:54:09.680Z,23.83
2022-08-07T05:56:06.080Z,23.90
2022-08-07T05:58:41.825Z,23.96
2022-08-07T06:01:23.334Z,23.81
2022-08-07T06:04:01.102Z,23.95
2022-08-07T06:06:37.279Z,24.04
2022-08-07T06:09:09.697Z,24.06
2022-08-07T06:11:44.190Z,24.12
2022-08-07T06:14:20.986Z,24.09
2022-08-07T06:16:57.121Z,23.97
2022-08-07T06:19:48.014Z,24.03
2022-08-07T06:22:24.068Z,24.06
2022-08-07T06:25:16.939Z,24.11
2022-08-07T06:28:01.410Z,24.15
2022-08-07T06:30:35.326Z,24.26
2022-08-07T06:33:15.613Z,24.30
2022-08-07T06:36:06.250Z,24.31
2022-08-07T06:38:35.770Z,24.35
2022-08-07T06:41:12.837Z,24.40
2022-08-07T06:43:59.259Z,24.52
2022-08-07T06:46:35.218Z,24.61
2022-08-07T06:49:05.090Z,24.72
2022-08-07T06:51:49.401Z,24.73
2022-08-07T21:21:04.636Z,24.98
2022-08-07T21:23:50.247Z,24.98
2022-08-07T21:26:34.693Z,25.06
2022-08-07T21:29:19.512Z,25.14
2022-08-07T21:32:43.558Z,25.26
2022-08-07T21:35:34.713Z,25.36
2022-08-07T21:38:27.932Z,25.45
2022-08-07T21:41:38.137Z,25.45
2022-08-07T21:44:30.625Z,25.51
2022-08-07T21:47:31.952Z,25.52
2022-08-07T21:50:08.535Z,25.56
2022-08-07T21:53:18.470Z,25.61
2022-08-07T21:56:51.949Z,25.63
2022-08-07T22:00:05.188Z,25.65
2022-08-07T22:02:49.066Z,25.69
2022-08-07T22:05:44.419Z,25.69
2022-08-07T22:08:18.541Z,25.74
2022-08-07T22:10:57.310Z,25.76
2022-08-07T22:13:52.102Z,25.74
2022-08-07T22:16:42.807Z,25.69
2022-08-07T22:19:36.972Z,25.63
2022-08-07T22:22:27.597Z,25.54
2022-08-07T22:25:12.196Z,25.55
2022-08-07T22:28:08.055Z,25.52
2022-08-07T22:31:59.291Z,25.51
2022-08-07T22:34:35.847Z,25.50
2022-08-07T22:37:09.273Z,25.48
2022-08-07T22:40:18.996Z,25.49
2022-08-07T22:42:52.296Z,25.52
2022-08-07T22:46:04.619Z,25.52
2022-08-07T22:49:02.083Z,25.55
2022-08-07T22:52:36.686Z,25.54
2022-08-07T22:55:30.161Z,25.44
2022-08-07T22:58:17.475Z,25.36
2022-08-07T23:01:08.110Z,25.30
2022-08-07T23:03:57.929Z,25.19
2022-08-07T23:06:51.295Z,25.03
2022-08-07T23:10:00.681Z,24.87
2022-08-07T23:12:46.761Z,24.67
2022-08-07T23:16:06.452Z,24.67
2022-08-07T23:19:14.016Z,24.67
2022-08-07T23:21:58.148Z,24.76
2022-08-07T23:28:21.412Z,24.71
2022-08-07T23:31:11.606Z,24.64
2022-08-07T23:34:36.479Z,24.71
2022-08-07T23:37:19.225Z,24.77
2022-08-07T23:40:07.547Z,24.81
2022-08-07T23:43:16.941Z,24.86
2022-08-07T23:46:10.668Z,24.86
2022-08-07T23:49:08.705Z,24.89
2022-08-07T23:53:01.866Z,24.90
2022-08-07T23:54:58.251Z,24.83
2022-08-07T23:58:06.660Z,24.79
